Briefing drone pour Saint-mamet-la-salvetat

Rechercher une autre localisation

Conditions de vol :


Nous sommes le : Samedi 23 octobre 2021
Il est 17:42 UTC (19:42 LT)

Lever de soleil : 05:50 UTC (07:50 LT)
Coucher de soleil : 17:19 UTC (19:19 LT)

Météo

L'essentiel des conditions de vol

VIGILANCE MÉTÉO FRANCE - Cantal (15)
Pas de vigilances particulieres
METAR de LFLW
LFLW 231730Z AUTO 10002KT CAVOK 08/03 Q1023 NOSIG

Date d'émission: 23/10/2021
Heure d'émission: 17:30 UTC
Vent: 100° pour 2 KT (4 km/h)
Visibilité horizontale: > 10 km
Plafond : Plafond et visibilité OK (CAVOK)
Température: 8 °C
Point de rosée: 3 °C
Humidité: 71%
Pression (QNH): 1023 hPa
Conditions: Pas de changement dans les 2 heures (NOSIG)
Prévision 24h pour Aurillac (9 km)
Vent : 173° pour 2 KT (8 km/h)
Temperature Maxi: 16 °C
Temperature Min: 16 °C
Humidité : 51%
Condition : Ciel dégagé



Warning: count(): Parameter must be an array or an object that implements Countable in /homepages/6/d509196549/htdocs/droneoxygene/briefing.php on line 743
WEBCAM POUR SAINT-MAMET-LA-SALVETAT

Réglementation

Voler en sécurité

CARTES AERONAUTIQUE 1/500.000
CARTES VAC (LFLW)
SUP AIP




Chargement des AIP...
NOTAM (SAINT-MAMET-LA-SALVETAT + Terrain à proximité / FIR )




Chargement des NOTAMS...
CONTACT PREFECTURE 15


Avertissement : Les données mises à disposition sont indicatives. Oxygène Drone ne pourra être tenu responsable de dégâts causés aux biens et aux personnes.